Time;durP1;ratioP1;P1;durP2;ratioP2;P2;SDS_P1;SDS_P2;PMS_P1;PMS_P2;Temp;Humidity;BMP_temperature;BMP_pressure;BME280_temperature;BME280_humidity;BME280_pressure;Samples;Min_cycle;Max_cycle;Signal;HPM_P1;HPM_P2
2023/01/30 00:00:44;;;;;;;;;;;;;;;;;;5013944;28;19953;-69
2023/01/30 00:03:10;;;;;;;;;;;;;;;;;;5013834;28;19973;-70
2023/01/30 00:05:36;;;;;;;;;;;;;;;;;;5014209;28;19963;-71
2023/01/30 00:08:01;;;;;;;;;;;;;;;;;;5014395;28;19951;-70
2023/01/30 00:10:27;;;;;;;;;;;;;;;;;;5013623;28;19959;-71
2023/01/30 00:12:53;;;;;;;;;;;;;;;;;;5013777;28;20019;-71
2023/01/30 00:15:19;;;;;;;;;;;;;;;;;;5013349;28;20348;-71
2023/01/30 00:17:45;;;;;;;;;;;;;;;;;;5013827;28;20002;-69
2023/01/30 00:20:11;;;;;;;;;;;;;;;;;;5013482;28;20359;-70
2023/01/30 00:22:37;;;;;;;;;;;;;;;;;;5013426;28;19971;-68
2023/01/30 00:25:03;;;;;;;;;;;;;;;;;;5013712;28;20043;-71
2023/01/30 00:27:29;;;;;;;;;;;;;;;;;;5013417;28;20049;-71
2023/01/30 00:29:54;;;;;;;;;;;;;;;;;;5016654;28;19958;-70
2023/01/30 00:32:20;;;;;;;;;;;;;;;;;;5017012;28;19947;-71
2023/01/30 00:34:46;;;;;;;;;;;;;;;;;;5017525;28;20398;-69
2023/01/30 00:37:12;;;;;;;;;;;;;;;;;;5017250;28;20000;-71
2023/01/30 00:39:38;;;;;;;;;;;;;;;;;;5017439;28;19963;-69
2023/01/30 00:47:33;;;;;;;;;;;;;;;;;;5016819;28;20384;-70
2023/01/30 00:49:59;;;;;;;;;;;;;;;;;;5016711;28;19955;-69
2023/01/30 00:52:25;;;;;;;;;;;;;;;;;;5017239;28;19963;-70
2023/01/30 00:54:51;;;;;;;;;;;;;;;;;;5016843;28;19957;-69
2023/01/30 00:57:17;;;;;;;;;;;;;;;;;;5016855;28;19997;-69
2023/01/30 00:59:43;;;;;;;;;;;;;;;;;;5016508;28;19976;-69
2023/01/30 01:02:09;;;;;;;;;;;;;;;;;;5016954;28;20332;-69
2023/01/30 01:04:42;;;;;;;;;;;;;;;;;;5016677;28;19958;-70
2023/01/30 01:07:07;;;;;;;;;;;;;;;;;;5016390;28;19964;-69
2023/01/30 01:09:33;;;;;;;;;;;;;;;;;;5016355;28;20326;-69
2023/01/30 01:11:59;;;;;;;;;;;;;;;;;;5016506;28;19992;-69
2023/01/30 01:14:25;;;;;;;;;;;;;;;;;;5016069;28;20044;-70
2023/01/30 01:16:51;;;;;;;;;;;;;;;;;;5015830;28;19989;-71
2023/01/30 01:19:17;;;;;;;;;;;;;;;;;;5016366;28;19966;-68
2023/01/30 01:21:43;;;;;;;;;;;;;;;;;;5016694;28;19954;-71
2023/01/30 01:24:09;;;;;;;;;;;;;;;;;;5016022;28;20454;-71
2023/01/30 01:26:35;;;;;;;;;;;;;;;;;;5016553;28;20044;-71
2023/01/30 01:29:00;;;;;;;;;;;;;;;;;;5015982;28;19960;-70
2023/01/30 01:31:26;;;;;;;;;;;;;;;;;;5016459;28;19952;-69
2023/01/30 01:33:52;;;;;;;;;;;;;;;;;;5016180;28;19953;-71
2023/01/30 01:36:18;;;;;;;;;;;;;;;;;;5015842;28;20413;-69
2023/01/30 01:38:44;;;;;;;;;;;;;;;;;;5016086;28;19990;-69
2023/01/30 01:41:10;;;;;;;;;;;;;;;;;;5015106;28;19961;-69
2023/01/30 01:43:36;;;;;;;;;;;;;;;;;;5015928;28;19995;-70
2023/01/30 01:46:02;;;;;;;;;;;;;;;;;;5015645;28;19953;-71
2023/01/30 01:48:28;;;;;;;;;;;;;;;;;;5015620;28;19949;-70
2023/01/30 01:50:53;;;;;;;;;;;;;;;;;;5015586;28;20002;-70
2023/01/30 01:53:19;;;;;;;;;;;;;;;;;;5015783;28;20422;-71
2023/01/30 01:55:45;;;;;;;;;;;;;;;;;;5015448;28;19958;-69
2023/01/30 01:58:11;;;;;;;;;;;;;;;;;;5015426;28;19974;-69
2023/01/30 02:00:37;;;;;;;;;;;;;;;;;;5015351;28;19959;-70
2023/01/30 02:03:03;;;;;;;;;;;;;;;;;;5015286;28;19971;-70
2023/01/30 02:05:29;;;;;;;;;;;;;;;;;;5015285;28;20005;-69
2023/01/30 02:07:55;;;;;;;;;;;;;;;;;;5015807;28;20060;-70
2023/01/30 02:10:21;;;;;;;;;;;;;;;;;;5015175;28;20422;-68
2023/01/30 02:12:47;;;;;;;;;;;;;;;;;;5015307;28;19945;-71
2023/01/30 02:15:12;;;;;;;;;;;;;;;;;;5015128;28;19991;-68
2023/01/30 02:17:38;;;;;;;;;;;;;;;;;;5015636;28;19950;-69
2023/01/30 02:20:04;;;;;;;;;;;;;;;;;;5014984;28;19951;-69
2023/01/30 02:22:30;;;;;;;;;;;;;;;;;;5014908;28;20470;-69
2023/01/30 02:24:56;;;;;;;;;;;;;;;;;;5015200;28;19954;-68
2023/01/30 02:27:22;;;;;;;;;;;;;;;;;;5014913;28;20288;-69
2023/01/30 02:29:48;;;;;;;;;;;;;;;;;;5015133;28;19958;-68
2023/01/30 02:32:14;;;;;;;;;;;;;;;;;;5014833;28;19952;-70
2023/01/30 02:34:39;;;;;;;;;;;;;;;;;;5015323;28;20401;-71
2023/01/30 02:37:05;;;;;;;;;;;;;;;;;;5014718;28;20078;-72
2023/01/30 02:39:32;;;;;;;;;;;;;;;;;;5015194;28;19949;-70
2023/01/30 02:41:58;;;;;;;;;;;;;;;;;;5014906;28;19951;-68
2023/01/30 02:44:24;;;;;;;;;;;;;;;;;;5015170;28;19972;-69
2023/01/30 02:46:50;;;;;;;;;;;;;;;;;;5014835;28;19945;-70
2023/01/30 02:49:16;;;;;;;;;;;;;;;;;;5015055;28;19957;-69
2023/01/30 02:51:42;;;;;;;;;;;;;;;;;;5014171;28;19947;-71
2023/01/30 02:54:08;;;;;;;;;;;;;;;;;;5014405;28;20326;-71
2023/01/30 02:56:33;;;;;;;;;;;;;;;;;;5014664;28;19953;-68
2023/01/30 02:58:59;;;;;;;;;;;;;;;;;;5014357;28;19975;-69
2023/01/30 03:01:25;;;;;;;;;;;;;;;;;;5014589;28;19952;-71
2023/01/30 03:03:51;;;;;;;;;;;;;;;;;;4996613;28;19980;-69
2023/01/30 03:06:17;;;;;;;;;;;;;;;;;;5014793;28;20317;-68
2023/01/30 03:08:43;;;;;;;;;;;;;;;;;;5014532;28;19991;-70
2023/01/30 03:11:09;;;;;;;;;;;;;;;;;;5014224;28;19943;-68
2023/01/30 03:13:35;;;;;;;;;;;;;;;;;;5014133;28;20440;-71
2023/01/30 03:16:01;;;;;;;;;;;;;;;;;;5014655;28;20079;-69
2023/01/30 03:18:27;;;;;;;;;;;;;;;;;;5014362;28;19950;-71
2023/01/30 03:20:52;;;;;;;;;;;;;;;;;;5014110;28;20421;-69
2023/01/30 03:23:18;;;;;;;;;;;;;;;;;;5014260;28;19969;-71
2023/01/30 03:25:44;;;;;;;;;;;;;;;;;;5014038;28;19943;-69
2023/01/30 03:28:10;;;;;;;;;;;;;;;;;;5013977;28;20033;-71
2023/01/30 03:30:36;;;;;;;;;;;;;;;;;;5014568;28;20400;-69
2023/01/30 03:33:02;;;;;;;;;;;;;;;;;;5014233;28;19988;-68
2023/01/30 03:35:28;;;;;;;;;;;;;;;;;;5013912;28;20316;-69
2023/01/30 03:37:54;;;;;;;;;;;;;;;;;;5014185;28;19987;-71
2023/01/30 03:40:20;;;;;;;;;;;;;;;;;;5013848;28;19937;-70
2023/01/30 03:42:45;;;;;;;;;;;;;;;;;;5013794;28;20020;-70
2023/01/30 03:45:11;;;;;;;;;;;;;;;;;;5014083;28;20020;-69
2023/01/30 03:47:37;;;;;;;;;;;;;;;;;;5013784;28;19941;-69
2023/01/30 03:50:03;;;;;;;;;;;;;;;;;;5014310;28;19941;-71
2023/01/30 03:52:29;;;;;;;;;;;;;;;;;;5013753;28;19948;-69
2023/01/30 03:54:55;;;;;;;;;;;;;;;;;;5013774;28;19942;-72
2023/01/30 03:57:21;;;;;;;;;;;;;;;;;;5014027;28;19948;-70
2023/01/30 03:59:47;;;;;;;;;;;;;;;;;;5013704;28;19940;-70
2023/01/30 04:02:13;;;;;;;;;;;;;;;;;;5013662;28;20406;-71
2023/01/30 04:04:39;;;;;;;;;;;;;;;;;;5016177;28;19947;-70
2023/01/30 04:07:05;;;;;;;;;;;;;;;;;;5017488;28;19956;-70
2023/01/30 04:09:31;;;;;;;;;;;;;;;;;;5017461;28;19986;-69
2023/01/30 04:11:57;;;;;;;;;;;;;;;;;;5017705;28;19945;-69
2023/01/30 04:14:23;;;;;;;;;;;;;;;;;;5017582;28;20075;-69
2023/01/30 04:16:49;;;;;;;;;;;;;;;;;;5017227;28;19989;-69
2023/01/30 04:19:14;;;;;;;;;;;;;;;;;;5017311;28;19946;-69
2023/01/30 04:21:40;;;;;;;;;;;;;;;;;;5017529;28;19937;-70
2023/01/30 04:24:06;;;;;;;;;;;;;;;;;;5017099;28;20446;-71
2023/01/30 04:26:32;;;;;;;;;;;;;;;;;;5017677;28;20022;-69
2023/01/30 04:28:58;;;;;;;;;;;;;;;;;;5017097;28;19947;-69
2023/01/30 04:31:24;;;;;;;;;;;;;;;;;;5017584;28;19935;-68
2023/01/30 04:33:50;;;;;;;;;;;;;;;;;;5017026;28;19998;-71
2023/01/30 04:36:16;;;;;;;;;;;;;;;;;;5016997;28;20051;-69
2023/01/30 04:38:42;;;;;;;;;;;;;;;;;;5016938;28;19947;-69
2023/01/30 04:41:07;;;;;;;;;;;;;;;;;;5000151;28;19951;-68
2023/01/30 04:43:33;;;;;;;;;;;;;;;;;;5016753;28;19967;-71
2023/01/30 04:45:59;;;;;;;;;;;;;;;;;;5017024;28;19950;-69
2023/01/30 04:48:25;;;;;;;;;;;;;;;;;;5016749;28;19950;-69
2023/01/30 04:50:51;;;;;;;;;;;;;;;;;;5016709;28;19979;-69
2023/01/30 04:53:17;;;;;;;;;;;;;;;;;;5017229;28;20373;-70
2023/01/30 04:55:43;;;;;;;;;;;;;;;;;;5016901;28;19948;-69
2023/01/30 04:58:09;;;;;;;;;;;;;;;;;;5016588;28;19972;-70
2023/01/30 05:00:35;;;;;;;;;;;;;;;;;;5016857;28;20013;-70
2023/01/30 05:03:00;;;;;;;;;;;;;;;;;;5016466;28;19956;-71
2023/01/30 05:05:26;;;;;;;;;;;;;;;;;;5016756;28;19944;-70
2023/01/30 05:07:52;;;;;;;;;;;;;;;;;;5016413;28;19948;-70
2023/01/30 05:10:18;;;;;;;;;;;;;;;;;;5016515;28;19938;-70
2023/01/30 05:12:44;;;;;;;;;;;;;;;;;;5016757;28;20015;-70
2023/01/30 05:15:10;;;;;;;;;;;;;;;;;;5015817;28;19986;-70
2023/01/30 05:17:36;;;;;;;;;;;;;;;;;;5016510;28;19982;-71
2023/01/30 05:20:02;;;;;;;;;;;;;;;;;;5016195;28;19940;-70
2023/01/30 05:22:28;;;;;;;;;;;;;;;;;;5016640;28;20442;-70
2023/01/30 05:24:54;;;;;;;;;;;;;;;;;;5016064;28;20403;-70
2023/01/30 05:27:20;;;;;;;;;;;;;;;;;;5016099;28;19944;-69
2023/01/30 05:29:45;;;;;;;;;;;;;;;;;;5016258;28;20307;-71
2023/01/30 05:32:11;;;;;;;;;;;;;;;;;;5015939;28;20033;-71
2023/01/30 05:34:37;;;;;;;;;;;;;;;;;;5015854;28;19953;-70
2023/01/30 05:37:03;;;;;;;;;;;;;;;;;;5015906;28;19947;-70
2023/01/30 05:39:29;;;;;;;;;;;;;;;;;;5016106;28;20013;-71
2023/01/30 05:41:55;;;;;;;;;;;;;;;;;;5015745;28;20409;-70
2023/01/30 05:44:21;;;;;;;;;;;;;;;;;;5015907;28;19969;-68
2023/01/30 05:46:47;;;;;;;;;;;;;;;;;;5015647;28;20379;-69
2023/01/30 05:49:12;;;;;;;;;;;;;;;;;;5015644;28;19956;-71
2023/01/30 05:51:38;;;;;;;;;;;;;;;;;;5015854;28;19948;-71
2023/01/30 05:54:04;;;;;;;;;;;;;;;;;;5015813;28;19998;-68
2023/01/30 05:56:32;;;;;;;;;;;;;;;;;;5016053;28;19947;-70
2023/01/30 05:58:59;;;;;;;;;;;;;;;;;;4997954;28;20375;-71
2023/01/30 06:01:24;;;;;;;;;;;;;;;;;;4997541;28;19958;-71
2023/01/30 06:03:50;;;;;;;;;;;;;;;;;;5015562;28;19968;-71
2023/01/30 06:06:16;;;;;;;;;;;;;;;;;;5015379;28;20315;-70
2023/01/30 06:08:42;;;;;;;;;;;;;;;;;;5015527;28;19955;-69
2023/01/30 06:11:08;;;;;;;;;;;;;;;;;;5016013;28;19937;-70
2023/01/30 06:13:34;;;;;;;;;;;;;;;;;;5015385;28;19993;-69
2023/01/30 06:16:00;;;;;;;;;;;;;;;;;;5014930;28;20471;-68
2023/01/30 06:18:26;;;;;;;;;;;;;;;;;;5015080;28;19976;-70
2023/01/30 06:20:52;;;;;;;;;;;;;;;;;;5015341;28;20348;-70
2023/01/30 06:23:17;;;;;;;;;;;;;;;;;;5014942;28;19975;-71
2023/01/30 06:25:43;;;;;;;;;;;;;;;;;;5015244;28;19936;-70
2023/01/30 06:28:09;;;;;;;;;;;;;;;;;;5014959;28;20038;-70
2023/01/30 06:30:35;;;;;;;;;;;;;;;;;;5014877;28;20026;-71
2023/01/30 06:33:01;;;;;;;;;;;;;;;;;;5015359;28;20369;-70
2023/01/30 06:35:27;;;;;;;;;;;;;;;;;;5015026;28;19937;-71
2023/01/30 06:37:53;;;;;;;;;;;;;;;;;;5015284;28;20323;-72
2023/01/30 06:40:19;;;;;;;;;;;;;;;;;;5014658;28;19955;-69
2023/01/30 06:42:45;;;;;;;;;;;;;;;;;;5014548;28;19968;-72
2023/01/30 06:45:10;;;;;;;;;;;;;;;;;;5014547;28;20439;-69
2023/01/30 06:47:36;;;;;;;;;;;;;;;;;;5014565;28;19971;-71
2023/01/30 06:50:02;;;;;;;;;;;;;;;;;;5015078;28;19995;-70
2023/01/30 06:52:28;;;;;;;;;;;;;;;;;;5014499;28;19948;-69
2023/01/30 06:54:54;;;;;;;;;;;;;;;;;;5014440;28;20040;-69
2023/01/30 06:57:20;;;;;;;;;;;;;;;;;;5014719;28;19948;-69
2023/01/30 06:59:46;;;;;;;;;;;;;;;;;;5014442;28;20472;-70
2023/01/30 07:02:12;;;;;;;;;;;;;;;;;;5014578;28;19938;-71
2023/01/30 07:04:38;;;;;;;;;;;;;;;;;;5014326;28;20066;-69
2023/01/30 07:07:03;;;;;;;;;;;;;;;;;;5014318;28;19985;-70
2023/01/30 07:09:30;;;;;;;;;;;;;;;;;;5014800;28;20377;-70
2023/01/30 07:11:56;;;;;;;;;;;;;;;;;;4996375;28;19945;-71
2023/01/30 07:14:22;;;;;;;;;;;;;;;;;;5014650;28;20324;-70
2023/01/30 07:16:48;;;;;;;;;;;;;;;;;;5013788;28;19975;-72
2023/01/30 07:19:14;;;;;;;;;;;;;;;;;;5014112;28;20298;-69
2023/01/30 07:21:40;;;;;;;;;;;;;;;;;;5014076;28;19984;-69
2023/01/30 07:24:06;;;;;;;;;;;;;;;;;;5014583;28;19997;-70
2023/01/30 07:26:32;;;;;;;;;;;;;;;;;;5014300;28;19954;-68
2023/01/30 07:28:57;;;;;;;;;;;;;;;;;;5014808;28;19980;-71
2023/01/30 07:31:23;;;;;;;;;;;;;;;;;;5013964;28;19943;-70
2023/01/30 07:33:49;;;;;;;;;;;;;;;;;;5014491;28;20423;-71
2023/01/30 07:36:15;;;;;;;;;;;;;;;;;;5014181;28;19944;-72
2023/01/30 07:38:41;;;;;;;;;;;;;;;;;;5016307;28;20307;-70
2023/01/30 07:41:07;;;;;;;;;;;;;;;;;;5020431;28;19947;-69
2023/01/30 07:43:33;;;;;;;;;;;;;;;;;;5020327;28;19961;-69
2023/01/30 07:45:59;;;;;;;;;;;;;;;;;;5020668;28;19949;-70
2023/01/30 07:48:25;;;;;;;;;;;;;;;;;;5020368;28;20309;-69
2023/01/30 07:50:51;;;;;;;;;;;;;;;;;;5020590;28;19948;-71
2023/01/30 07:53:20;;;;;;;;;;;;;;;;;;5019158;28;19959;-74
2023/01/30 07:55:46;;;;;;;;;;;;;;;;;;5018088;28;20414;-73
2023/01/30 07:58:12;;;;;;;;;;;;;;;;;;5020275;28;19985;-74
2023/01/30 08:00:38;;;;;;;;;;;;;;;;;;5020268;28;19951;-74
2023/01/30 08:03:04;;;;;;;;;;;;;;;;;;5020257;28;20062;-70
2023/01/30 08:05:30;;;;;;;;;;;;;;;;;;5019420;28;20329;-70
2023/01/30 08:07:56;;;;;;;;;;;;;;;;;;5020759;28;20050;-72
2023/01/30 08:10:21;;;;;;;;;;;;;;;;;;5019787;28;20474;-70
2023/01/30 08:12:47;;;;;;;;;;;;;;;;;;5020019;28;19955;-72
2023/01/30 08:15:13;;;;;;;;;;;;;;;;;;5019545;28;20012;-75
2023/01/30 08:17:39;;;;;;;;;;;;;;;;;;5020428;28;19940;-72
2023/01/30 08:20:05;;;;;;;;;;;;;;;;;;5019494;28;20439;-75
2023/01/30 08:22:31;;;;;;;;;;;;;;;;;;5020238;28;19967;-71
2023/01/30 08:24:57;;;;;;;;;;;;;;;;;;5020012;28;19949;-71
2023/01/30 08:27:23;;;;;;;;;;;;;;;;;;5020567;28;20390;-74
2023/01/30 08:29:48;;;;;;;;;;;;;;;;;;5019385;28;19993;-72
2023/01/30 08:32:14;;;;;;;;;;;;;;;;;;5024199;28;20336;-74
2023/01/30 08:34:40;;;;;;;;;;;;;;;;;;5023920;28;20038;-72
2023/01/30 08:37:06;;;;;;;;;;;;;;;;;;5019799;28;20360;-73
2023/01/30 08:39:32;;;;;;;;;;;;;;;;;;5018754;28;20004;-73
2023/01/30 08:41:58;;;;;;;;;;;;;;;;;;5019243;28;19984;-70
2023/01/30 08:44:24;;;;;;;;;;;;;;;;;;5019080;28;20007;-74
2023/01/30 08:46:50;;;;;;;;;;;;;;;;;;5019659;28;19946;-74
2023/01/30 08:49:16;;;;;;;;;;;;;;;;;;5020456;28;19973;-74
2023/01/30 08:51:42;;;;;;;;;;;;;;;;;;5016707;28;19939;-73
2023/01/30 08:54:07;;;;;;;;;;;;;;;;;;5016761;28;19949;-73
2023/01/30 08:56:33;;;;;;;;;;;;;;;;;;5017245;28;19956;-72
2023/01/30 08:58:59;;;;;;;;;;;;;;;;;;5016333;28;19952;-73
2023/01/30 09:01:25;;;;;;;;;;;;;;;;;;5016906;28;19947;-73
2023/01/30 09:03:51;;;;;;;;;;;;;;;;;;5015902;28;19973;-72
2023/01/30 09:06:17;;;;;;;;;;;;;;;;;;5016519;28;19953;-74
2023/01/30 09:08:43;;;;;;;;;;;;;;;;;;5016507;28;20017;-73
2023/01/30 09:11:09;;;;;;;;;;;;;;;;;;5017259;28;19984;-73
2023/01/30 09:13:34;;;;;;;;;;;;;;;;;;5016449;28;19967;-73
2023/01/30 09:16:00;;;;;;;;;;;;;;;;;;5015769;28;19977;-71
2023/01/30 09:18:26;;;;;;;;;;;;;;;;;;5015649;28;20003;-70
2023/01/30 09:20:52;;;;;;;;;;;;;;;;;;5016243;28;20319;-72
2023/01/30 09:23:18;;;;;;;;;;;;;;;;;;5015807;28;19976;-72
2023/01/30 09:25:44;;;;;;;;;;;;;;;;;;5015376;28;20415;-71
2023/01/30 09:28:10;;;;;;;;;;;;;;;;;;5016083;28;19946;-71
2023/01/30 09:30:36;;;;;;;;;;;;;;;;;;5015252;28;20048;-70
2023/01/30 09:33:02;;;;;;;;;;;;;;;;;;5015950;28;20413;-72
2023/01/30 09:35:28;;;;;;;;;;;;;;;;;;5015905;28;19943;-72
2023/01/30 09:37:54;;;;;;;;;;;;;;;;;;5016206;28;19950;-72
2023/01/30 09:40:19;;;;;;;;;;;;;;;;;;5015785;28;20407;-71
2023/01/30 09:42:45;;;;;;;;;;;;;;;;;;5014988;28;19971;-72
2023/01/30 09:45:11;;;;;;;;;;;;;;;;;;5015337;28;20006;-74
2023/01/30 09:47:38;;;;;;;;;;;;;;;;;;5015639;28;20422;-73
2023/01/30 09:50:05;;;;;;;;;;;;;;;;;;5014807;28;19958;-75
2023/01/30 09:52:31;;;;;;;;;;;;;;;;;;5015181;28;20045;-74
2023/01/30 09:54:56;;;;;;;;;;;;;;;;;;5014984;28;19954;-75
2023/01/30 09:57:22;;;;;;;;;;;;;;;;;;5014111;28;20013;-74
2023/01/30 09:59:48;;;;;;;;;;;;;;;;;;5014099;28;19949;-74
2023/01/30 10:02:14;;;;;;;;;;;;;;;;;;5013634;28;20421;-72
2023/01/30 10:04:40;;;;;;;;;;;;;;;;;;5015642;28;19944;-73
2023/01/30 10:07:06;;;;;;;;;;;;;;;;;;5014467;28;19965;-74
2023/01/30 10:09:32;;;;;;;;;;;;;;;;;;4997341;28;19951;-74
2023/01/30 10:11:58;;;;;;;;;;;;;;;;;;5014292;28;19956;-72
2023/01/30 10:14:24;;;;;;;;;;;;;;;;;;5014618;28;20162;-75
2023/01/30 10:16:50;;;;;;;;;;;;;;;;;;5014305;28;19989;-73
2023/01/30 10:19:16;;;;;;;;;;;;;;;;;;4997102;28;20423;-74
2023/01/30 10:21:41;;;;;;;;;;;;;;;;;;5014527;28;19958;-72
2023/01/30 10:24:07;;;;;;;;;;;;;;;;;;5013665;28;20049;-71
2023/01/30 10:26:33;;;;;;;;;;;;;;;;;;5013972;28;19954;-72
2023/01/30 10:28:59;;;;;;;;;;;;;;;;;;5013966;28;20003;-73
2023/01/30 10:31:25;;;;;;;;;;;;;;;;;;5013919;28;19960;-75
2023/01/30 10:33:51;;;;;;;;;;;;;;;;;;5014269;28;19958;-78
2023/01/30 10:36:17;;;;;;;;;;;;;;;;;;4996360;28;20465;-73
2023/01/30 10:38:43;;;;;;;;;;;;;;;;;;5014284;28;20304;-75
2023/01/30 10:41:09;;;;;;;;;;;;;;;;;;5014315;28;19959;-72
2023/01/30 10:43:35;;;;;;;;;;;;;;;;;;5013592;28;20018;-72
2023/01/30 10:46:00;;;;;;;;;;;;;;;;;;4996732;28;19979;-71
2023/01/30 10:48:26;;;;;;;;;;;;;;;;;;5013833;28;19958;-73
2023/01/30 10:50:52;;;;;;;;;;;;;;;;;;5013596;28;20342;-72
2023/01/30 10:53:18;;;;;;;;;;;;;;;;;;5013441;28;19960;-72
2023/01/30 10:55:44;;;;;;;;;;;;;;;;;;5014168;28;19954;-73
2023/01/30 10:58:10;;;;;;;;;;;;;;;;;;5014413;28;20028;-72
2023/01/30 11:00:36;;;;;;;;;;;;;;;;;;5013799;28;20000;-74
2023/01/30 11:03:02;;;;;;;;;;;;;;;;;;5014336;28;19985;-72
2023/01/30 11:05:28;;;;;;;;;;;;;;;;;;5013798;28;19954;-73
2023/01/30 11:07:54;;;;;;;;;;;;;;;;;;5014564;28;19939;-73
2023/01/30 11:10:19;;;;;;;;;;;;;;;;;;5013342;28;20390;-71
2023/01/30 11:12:45;;;;;;;;;;;;;;;;;;5014084;28;19953;-71
2023/01/30 11:15:11;;;;;;;;;;;;;;;;;;5013552;28;20476;-72
2023/01/30 11:17:37;;;;;;;;;;;;;;;;;;5013694;28;19958;-72
2023/01/30 11:20:04;;;;;;;;;;;;;;;;;;5014109;28;20428;-71
2023/01/30 11:22:29;;;;;;;;;;;;;;;;;;5014065;28;20032;-71
2023/01/30 11:24:55;;;;;;;;;;;;;;;;;;5014081;28;20080;-71
2023/01/30 11:27:21;;;;;;;;;;;;;;;;;;5013626;28;20417;-69
2023/01/30 11:29:49;;;;;;;;;;;;;;;;;;5013422;28;19950;-71
2023/01/30 11:32:15;;;;;;;;;;;;;;;;;;4996818;28;19948;-71
2023/01/30 11:34:41;;;;;;;;;;;;;;;;;;5006612;28;19997;-75
2023/01/30 11:37:06;;;;;;;;;;;;;;;;;;5013856;28;19949;-75
2023/01/30 11:39:33;;;;;;;;;;;;;;;;;;5014177;28;19947;-76
2023/01/30 11:42:00;;;;;;;;;;;;;;;;;;5014259;28;19950;-75
2023/01/30 11:44:26;;;;;;;;;;;;;;;;;;4996163;28;19973;-73
2023/01/30 11:46:52;;;;;;;;;;;;;;;;;;5013861;28;19958;-73
2023/01/30 11:49:20;;;;;;;;;;;;;;;;;;5014126;28;19952;-74
2023/01/30 11:51:46;;;;;;;;;;;;;;;;;;5013772;28;19947;-74
2023/01/30 11:54:12;;;;;;;;;;;;;;;;;;5013816;28;19959;-75
2023/01/30 11:56:38;;;;;;;;;;;;;;;;;;5014043;28;20330;-75
2023/01/30 11:59:03;;;;;;;;;;;;;;;;;;5013738;28;19949;-74
2023/01/30 12:01:29;;;;;;;;;;;;;;;;;;4995868;28;20000;-74
2023/01/30 12:03:55;;;;;;;;;;;;;;;;;;4996803;28;20076;-74
2023/01/30 12:06:21;;;;;;;;;;;;;;;;;;5013665;28;19952;-76
2023/01/30 12:08:47;;;;;;;;;;;;;;;;;;5013959;28;19959;-76
2023/01/30 12:11:13;;;;;;;;;;;;;;;;;;5013653;28;19946;-75
2023/01/30 12:13:40;;;;;;;;;;;;;;;;;;5013522;28;19966;-74
2023/01/30 12:16:07;;;;;;;;;;;;;;;;;;4995778;28;19993;-74
2023/01/30 12:18:34;;;;;;;;;;;;;;;;;;5013838;28;20035;-75
2023/01/30 12:21:00;;;;;;;;;;;;;;;;;;5013506;28;19949;-75
2023/01/30 12:23:26;;;;;;;;;;;;;;;;;;4995856;28;19977;-76
2023/01/30 12:25:51;;;;;;;;;;;;;;;;;;5015918;28;19945;-74
2023/01/30 12:28:18;;;;;;;;;;;;;;;;;;5017181;28;19947;-75
2023/01/30 12:30:44;;;;;;;;;;;;;;;;;;5017129;28;19955;-75
2023/01/30 12:33:10;;;;;;;;;;;;;;;;;;5017405;28;20304;-74
2023/01/30 12:35:36;;;;;;;;;;;;;;;;;;5017100;28;20339;-74
2023/01/30 12:38:02;;;;;;;;;;;;;;;;;;5017333;28;19957;-76
2023/01/30 12:40:28;;;;;;;;;;;;;;;;;;5016984;28;20368;-74
2023/01/30 12:42:54;;;;;;;;;;;;;;;;;;5016866;28;19972;-74
2023/01/30 12:45:19;;;;;;;;;;;;;;;;;;5017181;28;19957;-75
2023/01/30 12:47:45;;;;;;;;;;;;;;;;;;5016942;28;20367;-74
2023/01/30 12:50:12;;;;;;;;;;;;;;;;;;5016855;28;19970;-74
2023/01/30 12:52:38;;;;;;;;;;;;;;;;;;5017356;28;19945;-74
2023/01/30 12:55:04;;;;;;;;;;;;;;;;;;5016995;28;19958;-74
2023/01/30 12:57:30;;;;;;;;;;;;;;;;;;5017242;28;20003;-74
2023/01/30 12:59:55;;;;;;;;;;;;;;;;;;4999031;28;19948;-74
2023/01/30 13:02:21;;;;;;;;;;;;;;;;;;4998858;28;19951;-74
2023/01/30 13:04:47;;;;;;;;;;;;;;;;;;5016813;28;19951;-74
2023/01/30 13:07:13;;;;;;;;;;;;;;;;;;5016305;28;19954;-75
2023/01/30 13:09:39;;;;;;;;;;;;;;;;;;5015966;28;20423;-73
2023/01/30 13:12:05;;;;;;;;;;;;;;;;;;5016326;28;19969;-71
2023/01/30 13:14:31;;;;;;;;;;;;;;;;;;5016346;28;20498;-72
2023/01/30 13:16:59;;;;;;;;;;;;;;;;;;5015664;28;19984;-73
2023/01/30 13:19:25;;;;;;;;;;;;;;;;;;5016265;28;19955;-72
2023/01/30 13:21:51;;;;;;;;;;;;;;;;;;5016762;28;20440;-72
2023/01/30 13:24:17;;;;;;;;;;;;;;;;;;5016467;28;20019;-73
2023/01/30 13:26:42;;;;;;;;;;;;;;;;;;5016145;28;19950;-73
2023/01/30 13:29:08;;;;;;;;;;;;;;;;;;5016629;28;20408;-73
2023/01/30 13:31:34;;;;;;;;;;;;;;;;;;5015743;28;19952;-73
2023/01/30 13:34:00;;;;;;;;;;;;;;;;;;5016511;28;20450;-73
2023/01/30 13:36:26;;;;;;;;;;;;;;;;;;5015358;28;19954;-72
2023/01/30 13:38:52;;;;;;;;;;;;;;;;;;5015881;28;20325;-73
2023/01/30 13:41:18;;;;;;;;;;;;;;;;;;5015952;28;19999;-75
2023/01/30 13:43:44;;;;;;;;;;;;;;;;;;5016010;28;19979;-75
2023/01/30 13:46:10;;;;;;;;;;;;;;;;;;4998280;28;19956;-74
2023/01/30 13:48:36;;;;;;;;;;;;;;;;;;4997807;28;19963;-73
2023/01/30 13:51:02;;;;;;;;;;;;;;;;;;5016216;28;19955;-73
2023/01/30 13:53:27;;;;;;;;;;;;;;;;;;5015951;28;19952;-73
2023/01/30 13:55:53;;;;;;;;;;;;;;;;;;5015968;28;20002;-73
2023/01/30 13:58:20;;;;;;;;;;;;;;;;;;5015535;28;20034;-73
2023/01/30 14:00:46;;;;;;;;;;;;;;;;;;5014869;28;19966;-75
2023/01/30 14:03:12;;;;;;;;;;;;;;;;;;5015321;28;19975;-73
2023/01/30 14:05:38;;;;;;;;;;;;;;;;;;5015028;28;19965;-73
2023/01/30 14:08:04;;;;;;;;;;;;;;;;;;5014819;28;19956;-71
2023/01/30 14:10:30;;;;;;;;;;;;;;;;;;5015982;28;19951;-72
2023/01/30 14:12:55;;;;;;;;;;;;;;;;;;5014809;28;19979;-70
2023/01/30 14:15:23;;;;;;;;;;;;;;;;;;5015010;28;20121;-71
2023/01/30 14:17:48;;;;;;;;;;;;;;;;;;5015741;28;19955;-71
2023/01/30 14:20:14;;;;;;;;;;;;;;;;;;5015073;28;20348;-73
2023/01/30 14:22:40;;;;;;;;;;;;;;;;;;5015076;28;19947;-73
2023/01/30 14:25:06;;;;;;;;;;;;;;;;;;5014735;28;19950;-73
2023/01/30 14:27:32;;;;;;;;;;;;;;;;;;5014682;28;19991;-72
2023/01/30 14:29:58;;;;;;;;;;;;;;;;;;5015191;28;19952;-70
2023/01/30 14:32:24;;;;;;;;;;;;;;;;;;5014981;28;19947;-71
2023/01/30 14:34:50;;;;;;;;;;;;;;;;;;5014974;28;19949;-74
2023/01/30 14:37:16;;;;;;;;;;;;;;;;;;5014824;28;19995;-70
2023/01/30 14:39:42;;;;;;;;;;;;;;;;;;5014293;28;20490;-72
2023/01/30 14:42:08;;;;;;;;;;;;;;;;;;5015002;28;19940;-74
2023/01/30 14:44:34;;;;;;;;;;;;;;;;;;5013844;28;20323;-74
2023/01/30 14:47:00;;;;;;;;;;;;;;;;;;5014701;28;19997;-75
2023/01/30 14:49:25;;;;;;;;;;;;;;;;;;5014788;28;19979;-72
2023/01/30 14:51:54;;;;;;;;;;;;;;;;;;5014888;28;19947;-70
2023/01/30 14:54:20;;;;;;;;;;;;;;;;;;5013911;28;20424;-69
2023/01/30 14:56:46;;;;;;;;;;;;;;;;;;5013915;28;19949;-71
2023/01/30 14:59:12;;;;;;;;;;;;;;;;;;5013781;28;19953;-71
2023/01/30 15:01:38;;;;;;;;;;;;;;;;;;5014444;28;19989;-73
2023/01/30 15:04:04;;;;;;;;;;;;;;;;;;5013862;28;20333;-72
2023/01/30 15:06:30;;;;;;;;;;;;;;;;;;5013693;28;19984;-70
2023/01/30 15:08:56;;;;;;;;;;;;;;;;;;5014309;28;19947;-70
2023/01/30 15:11:22;;;;;;;;;;;;;;;;;;5014295;28;19990;-72
2023/01/30 15:13:48;;;;;;;;;;;;;;;;;;5014170;28;19958;-70
2023/01/30 15:16:14;;;;;;;;;;;;;;;;;;5013856;28;20031;-73
2023/01/30 15:18:40;;;;;;;;;;;;;;;;;;5013601;28;19948;-72
2023/01/30 15:21:06;;;;;;;;;;;;;;;;;;4996552;28;19967;-73
2023/01/30 15:23:34;;;;;;;;;;;;;;;;;;5013012;28;19971;-73
2023/01/30 15:26:00;;;;;;;;;;;;;;;;;;5013741;28;20437;-71
2023/01/30 15:28:26;;;;;;;;;;;;;;;;;;5013981;28;20001;-72
2023/01/30 15:30:55;;;;;;;;;;;;;;;;;;5013551;28;19954;-73
2023/01/30 15:33:21;;;;;;;;;;;;;;;;;;5013481;28;19954;-76
2023/01/30 15:35:47;;;;;;;;;;;;;;;;;;5013237;28;19961;-71
2023/01/30 15:38:13;;;;;;;;;;;;;;;;;;5013450;28;19965;-72
2023/01/30 15:40:39;;;;;;;;;;;;;;;;;;5013164;28;19979;-71
2023/01/30 15:43:05;;;;;;;;;;;;;;;;;;4996169;28;20438;-72
2023/01/30 15:45:31;;;;;;;;;;;;;;;;;;5013606;28;19960;-72
2023/01/30 15:47:57;;;;;;;;;;;;;;;;;;5012015;28;19963;-72
2023/01/30 15:50:23;;;;;;;;;;;;;;;;;;5013702;28;20458;-72
2023/01/30 15:52:49;;;;;;;;;;;;;;;;;;5014257;28;19978;-72
2023/01/30 15:55:15;;;;;;;;;;;;;;;;;;5013620;28;20380;-71
2023/01/30 15:57:42;;;;;;;;;;;;;;;;;;5012336;28;20692;-72
2023/01/30 16:00:10;;;;;;;;;;;;;;;;;;5014426;28;19961;-72
2023/01/30 16:02:36;;;;;;;;;;;;;;;;;;5017112;28;20026;-72
2023/01/30 16:05:02;;;;;;;;;;;;;;;;;;5016934;28;19955;-70
2023/01/30 16:07:28;;;;;;;;;;;;;;;;;;5016668;28;20483;-70
2023/01/30 16:09:54;;;;;;;;;;;;;;;;;;5016269;28;19952;-71
2023/01/30 16:12:20;;;;;;;;;;;;;;;;;;5015304;28;20403;-71
2023/01/30 16:14:45;;;;;;;;;;;;;;;;;;5015660;28;20474;-71
2023/01/30 16:17:11;;;;;;;;;;;;;;;;;;5015314;28;20417;-71
2023/01/30 16:19:37;;;;;;;;;;;;;;;;;;5016796;28;20353;-71
2023/01/30 16:22:04;;;;;;;;;;;;;;;;;;5017212;28;19948;-71
2023/01/30 16:24:31;;;;;;;;;;;;;;;;;;5016991;28;20009;-71
2023/01/30 16:26:57;;;;;;;;;;;;;;;;;;5015940;28;19965;-72
2023/01/30 16:29:23;;;;;;;;;;;;;;;;;;5015479;28;19977;-72
2023/01/30 16:31:49;;;;;;;;;;;;;;;;;;4996032;28;20343;-72
2023/01/30 16:34:15;;;;;;;;;;;;;;;;;;4998270;28;20378;-73
2023/01/30 16:36:42;;;;;;;;;;;;;;;;;;4997455;28;19967;-72
2023/01/30 16:39:08;;;;;;;;;;;;;;;;;;5012473;28;20343;-72
2023/01/30 16:41:34;;;;;;;;;;;;;;;;;;4997391;28;19949;-74